Terminal Aerodrome Forecast
Issued by NWS Los Angeles, CA

Home | Current Version | Previous Version | Text Only | Print | Product List | Glossary On
Versions: 1 2 3 4 5 6 7 8 9 10 11 12 13 14 15 16 17 18 19 20 21 22 23 24 25 26 27 28 29 30 31 32 33 34 35
000
FTUS46 KLOX 292354
TAFSMX
TAF
KSMX 292354Z 3000/3024 31011KT P6SM SCT250
     FM300200 31006KT P6SM SCT250
     FM300700 VRB03KT 1 1/2SM BR BKN003
     FM301530 31006KT P6SM SKC
     FM302000 31014G20KT P6SM SKC=

USA.gov is the U.S. government's official web portal to all federal, state and local government web resources and services.